EJU94VR LPPR-LIML
Flight info
| Callsign | EJU94VR |
|---|---|
| Flight time | 1h 59m |
| Altitude | 36000 |
| Route | BELDU DCT ADORO DCT FITSE DCT DGO DCT LPA DCT GOSVI DCT TOPTU DCT TOU DCT GAI DCT MEN DCT NINUN DCT LATAM DCT ROMAM/N0450F370 DCT ETIDO DCT NEDRU DCT RILIP DCT EMMEF DCT LAPRI/N0405F240 DCT MOGBO/N0412F250 DCT TOP |
| Aircraft | A320/M-SDE3FGHIRWY/LB1 |
Departure
| Time | 2026-05-05 18:13 |
|---|---|
| Airport | Francisco de Sá Carneiro Airport (LPPR) |
Arrival
| Time | 2026-05-05 20:13 |
|---|---|
| Airport | Milano Linate Airport (LIML) |
| Time | Latitude | Longitude | Altitude | Speed | Heading |
|---|---|---|---|---|---|
| 2026-05-05 17:49 | 41.24106 | -8.67320 | 243 ft | 0 kts | 79° |
| 2026-05-05 18:04 | 41.24105 | -8.67331 | 242 ft | 3 kts | 78° |
| 2026-05-05 18:04 | 41.24100 | -8.67362 | 242 ft | 3 kts | 77° |
| 2026-05-05 18:04 | 41.24095 | -8.67393 | 242 ft | 3 kts | 81° |
| 2026-05-05 18:04 | 41.24093 | -8.67423 | 242 ft | 3 kts | 102° |
| 2026-05-05 18:05 | 41.24100 | -8.67444 | 242 ft | 1 kts | 157° |
| 2026-05-05 18:05 | 41.24101 | -8.67444 | 242 ft | 0 kts | 157° |
| 2026-05-05 18:07 | 41.24095 | -8.67441 | 242 ft | 4 kts | 157° |
| 2026-05-05 18:07 | 41.24061 | -8.67426 | 242 ft | 5 kts | 166° |
| 2026-05-05 18:08 | 41.24021 | -8.67419 | 242 ft | 9 kts | 176° |
| 2026-05-05 18:08 | 41.23947 | -8.67458 | 240 ft | 13 kts | 223° |
| 2026-05-05 18:08 | 41.23926 | -8.67576 | 235 ft | 11 kts | 258° |
| 2026-05-05 18:08 | 41.23914 | -8.67657 | 235 ft | 6 kts | 258° |
| 2026-05-05 18:09 | 41.23905 | -8.67718 | 230 ft | 5 kts | 259° |
| 2026-05-05 18:09 | 41.23901 | -8.67747 | 228 ft | 3 kts | 259° |
| 2026-05-05 18:09 | 41.23900 | -8.67751 | 228 ft | 0 kts | 259° |
| 2026-05-05 18:11 | 41.23900 | -8.67752 | 228 ft | 1 kts | 259° |
| 2026-05-05 18:12 | 41.23891 | -8.67819 | 224 ft | 12 kts | 259° |
| 2026-05-05 18:12 | 41.23887 | -8.67880 | 221 ft | 4 kts | 296° |
| 2026-05-05 18:12 | 41.23902 | -8.67889 | 221 ft | 0 kts | 349° |
| 2026-05-05 18:13 | 41.24006 | -8.67914 | 218 ft | 48 kts | 349° |
| 2026-05-05 18:13 | 41.24563 | -8.68062 | 215 ft | 112 kts | 349° |
| 2026-05-05 18:13 | 41.25508 | -8.68306 | 205 ft | 160 kts | 348° |
| 2026-05-05 18:13 | 41.26586 | -8.68592 | 942 ft | 157 kts | 347° |
| 2026-05-05 18:14 | 41.27655 | -8.68881 | 1716 ft | 157 kts | 348° |
| 2026-05-05 18:14 | 41.28729 | -8.69164 | 2401 ft | 157 kts | 347° |
| 2026-05-05 18:14 | 41.29784 | -8.69438 | 3077 ft | 156 kts | 348° |
| 2026-05-05 18:14 | 41.30855 | -8.69718 | 3635 ft | 162 kts | 348° |
| 2026-05-05 18:15 | 41.32039 | -8.70028 | 3904 ft | 184 kts | 348° |
| 2026-05-05 18:15 | 41.33379 | -8.70381 | 4143 ft | 209 kts | 348° |
| 2026-05-05 18:15 | 41.34891 | -8.70778 | 4498 ft | 233 kts | 348° |
| 2026-05-05 18:15 | 41.36547 | -8.71212 | 5053 ft | 249 kts | 348° |
| 2026-05-05 18:16 | 41.38268 | -8.71661 | 5885 ft | 254 kts | 348° |
| 2026-05-05 18:16 | 41.40042 | -8.71856 | 6715 ft | 260 kts | 6° |
| 2026-05-05 18:16 | 41.41737 | -8.70969 | 7500 ft | 270 kts | 34° |
| 2026-05-05 18:16 | 41.42932 | -8.68996 | 8286 ft | 283 kts | 64° |
| 2026-05-05 18:17 | 41.43427 | -8.66423 | 9102 ft | 290 kts | 75° |
| 2026-05-05 18:17 | 41.43812 | -8.63773 | 9931 ft | 293 kts | 76° |
| 2026-05-05 18:17 | 41.44170 | -8.61056 | 10487 ft | 307 kts | 80° |
| 2026-05-05 18:17 | 41.44216 | -8.58096 | 10723 ft | 333 kts | 92° |
| 2026-05-05 18:18 | 41.43893 | -8.54966 | 11228 ft | 345 kts | 96° |
| 2026-05-05 18:18 | 41.43551 | -8.51785 | 11906 ft | 350 kts | 95° |
| 2026-05-05 18:18 | 41.43218 | -8.48556 | 12625 ft | 354 kts | 95° |
| 2026-05-05 18:18 | 41.42892 | -8.45282 | 13319 ft | 358 kts | 95° |
| 2026-05-05 18:19 | 41.42571 | -8.42002 | 13965 ft | 363 kts | 95° |
| 2026-05-05 18:19 | 41.42238 | -8.38646 | 14562 ft | 367 kts | 95° |
| 2026-05-05 18:19 | 41.41893 | -8.35252 | 15121 ft | 372 kts | 95° |
| 2026-05-05 18:19 | 41.41561 | -8.31812 | 15699 ft | 376 kts | 91° |
| 2026-05-05 18:20 | 41.41610 | -8.28327 | 16261 ft | 378 kts | 83° |
| 2026-05-05 18:20 | 41.41751 | -8.24805 | 16844 ft | 383 kts | 83° |
| 2026-05-05 18:20 | 41.41898 | -8.21244 | 17408 ft | 388 kts | 83° |
| 2026-05-05 18:20 | 41.42049 | -8.17635 | 17956 ft | 392 kts | 83° |
| 2026-05-05 18:21 | 41.42200 | -8.13986 | 18494 ft | 397 kts | 82° |
| 2026-05-05 18:21 | 41.42352 | -8.10288 | 18970 ft | 401 kts | 82° |
| 2026-05-05 18:21 | 41.42505 | -8.06560 | 19463 ft | 405 kts | 83° |
| 2026-05-05 18:21 | 41.42659 | -8.02795 | 19948 ft | 409 kts | 83° |
| 2026-05-05 18:22 | 41.42815 | -7.98996 | 20417 ft | 413 kts | 83° |
| 2026-05-05 18:22 | 41.42970 | -7.95162 | 20888 ft | 416 kts | 83° |
| 2026-05-05 18:22 | 41.43122 | -7.91286 | 21360 ft | 420 kts | 83° |
| 2026-05-05 18:22 | 41.43272 | -7.87385 | 21833 ft | 424 kts | 83° |
| 2026-05-05 18:23 | 41.43420 | -7.83491 | 22275 ft | 427 kts | 83° |
| 2026-05-05 18:23 | 41.43568 | -7.79521 | 22728 ft | 431 kts | 83° |
| 2026-05-05 18:23 | 41.43716 | -7.75511 | 23178 ft | 435 kts | 83° |
| 2026-05-05 18:23 | 41.43866 | -7.71467 | 23622 ft | 438 kts | 84° |
| 2026-05-05 18:24 | 41.44017 | -7.67403 | 23971 ft | 441 kts | 84° |
| 2026-05-05 18:24 | 41.44170 | -7.63302 | 24345 ft | 444 kts | 84° |
| 2026-05-05 18:24 | 41.44324 | -7.59178 | 24723 ft | 447 kts | 84° |
| 2026-05-05 18:24 | 41.44474 | -7.55026 | 25056 ft | 450 kts | 84° |
| 2026-05-05 18:25 | 41.44622 | -7.50843 | 25397 ft | 454 kts | 84° |
| 2026-05-05 18:25 | 41.44719 | -7.48056 | 25625 ft | 456 kts | 84° |
| 2026-05-05 18:25 | 41.44912 | -7.42392 | 26107 ft | 458 kts | 84° |
| 2026-05-05 18:25 | 41.45057 | -7.38136 | 26464 ft | 461 kts | 84° |
| 2026-05-05 18:26 | 41.45204 | -7.33849 | 26809 ft | 464 kts | 84° |
| 2026-05-05 18:26 | 41.45350 | -7.29546 | 27133 ft | 467 kts | 84° |
| 2026-05-05 18:26 | 41.45493 | -7.25261 | 27424 ft | 469 kts | 85° |
| 2026-05-05 18:26 | 41.45634 | -7.20907 | 27791 ft | 471 kts | 85° |
| 2026-05-05 18:27 | 41.45773 | -7.16525 | 28089 ft | 475 kts | 85° |
| 2026-05-05 18:27 | 41.45915 | -7.12108 | 28407 ft | 478 kts | 85° |
| 2026-05-05 18:27 | 41.46060 | -7.07676 | 28732 ft | 480 kts | 85° |
| 2026-05-05 18:27 | 41.46204 | -7.03219 | 29055 ft | 483 kts | 85° |
| 2026-05-05 18:28 | 41.46483 | -6.94220 | 29695 ft | 488 kts | 85° |
| 2026-05-05 18:28 | 41.46616 | -6.89693 | 29982 ft | 490 kts | 85° |
| 2026-05-05 18:28 | 41.46748 | -6.85139 | 30239 ft | 492 kts | 85° |
| 2026-05-05 18:29 | 41.46882 | -6.80569 | 30477 ft | 495 kts | 85° |
| 2026-05-05 18:29 | 41.47019 | -6.75972 | 30712 ft | 497 kts | 85° |
| 2026-05-05 18:29 | 41.47156 | -6.71363 | 30968 ft | 498 kts | 85° |
| 2026-05-05 18:29 | 41.47291 | -6.66734 | 31230 ft | 499 kts | 86° |
| 2026-05-05 18:30 | 41.47419 | -6.62171 | 31590 ft | 498 kts | 86° |
| 2026-05-05 18:30 | 41.47544 | -6.57565 | 31914 ft | 497 kts | 86° |
| 2026-05-05 18:30 | 41.47786 | -6.48370 | 32003 ft | 495 kts | 86° |
| 2026-05-05 18:31 | 41.48027 | -6.39176 | 32000 ft | 497 kts | 86° |
| 2026-05-05 18:31 | 41.48441 | -6.29980 | 32223 ft | 495 kts | 78° |
| 2026-05-05 18:32 | 41.49195 | -6.25515 | 32566 ft | 490 kts | 69° |
| 2026-05-05 18:32 | 41.50363 | -6.21267 | 32920 ft | 486 kts | 64° |
| 2026-05-05 18:32 | 41.51637 | -6.17086 | 33270 ft | 485 kts | 64° |
| 2026-05-05 18:32 | 41.52901 | -6.12915 | 33626 ft | 485 kts | 64° |
| 2026-05-05 18:33 | 41.54157 | -6.08751 | 33978 ft | 484 kts | 64° |
| 2026-05-05 18:33 | 41.55412 | -6.04585 | 34231 ft | 484 kts | 64° |
| 2026-05-05 18:33 | 41.56655 | -6.00456 | 34458 ft | 485 kts | 64° |
| 2026-05-05 18:33 | 41.57914 | -5.96282 | 34709 ft | 485 kts | 64° |
| 2026-05-05 18:34 | 41.59170 | -5.92100 | 34964 ft | 484 kts | 64° |
| 2026-05-05 18:34 | 41.60424 | -5.87920 | 35211 ft | 484 kts | 64° |
| 2026-05-05 18:34 | 41.61673 | -5.83753 | 35453 ft | 484 kts | 65° |
| 2026-05-05 18:34 | 41.62925 | -5.79580 | 35693 ft | 483 kts | 65° |
| 2026-05-05 18:35 | 41.64174 | -5.75417 | 35933 ft | 483 kts | 64° |
| 2026-05-05 18:35 | 41.65422 | -5.71258 | 35992 ft | 480 kts | 65° |
| 2026-05-05 18:35 | 41.67880 | -5.62978 | 36007 ft | 479 kts | 65° |
| 2026-05-05 18:36 | 41.70334 | -5.54678 | 35997 ft | 479 kts | 65° |
| 2026-05-05 18:36 | 41.72788 | -5.46391 | 36010 ft | 479 kts | 65° |
| 2026-05-05 18:37 | 41.75240 | -5.38103 | 36006 ft | 479 kts | 65° |
| 2026-05-05 18:37 | 41.77683 | -5.29803 | 36012 ft | 479 kts | 65° |
| 2026-05-05 18:38 | 41.80109 | -5.21482 | 36007 ft | 479 kts | 65° |
| 2026-05-05 18:38 | 41.82539 | -5.13159 | 36009 ft | 479 kts | 65° |
| 2026-05-05 18:39 | 41.84965 | -5.04835 | 36013 ft | 479 kts | 65° |
| 2026-05-05 18:39 | 41.87383 | -4.96492 | 36014 ft | 480 kts | 65° |
| 2026-05-05 18:40 | 41.89802 | -4.88147 | 36042 ft | 479 kts | 66° |
| 2026-05-05 18:40 | 41.92202 | -4.79802 | 36035 ft | 479 kts | 66° |
| 2026-05-05 18:41 | 41.94597 | -4.71470 | 36031 ft | 478 kts | 66° |
| 2026-05-05 18:41 | 41.96971 | -4.63191 | 36020 ft | 477 kts | 66° |
| 2026-05-05 18:42 | 41.99348 | -4.54860 | 36026 ft | 477 kts | 66° |
| 2026-05-05 18:42 | 42.01728 | -4.46530 | 36018 ft | 477 kts | 66° |
| 2026-05-05 18:43 | 42.04095 | -4.38179 | 36013 ft | 478 kts | 67° |
| 2026-05-05 18:43 | 42.06450 | -4.29810 | 36011 ft | 478 kts | 67° |
| 2026-05-05 18:44 | 42.08794 | -4.21493 | 36017 ft | 478 kts | 67° |
| 2026-05-05 18:44 | 42.11151 | -4.13110 | 36020 ft | 479 kts | 67° |
| 2026-05-05 18:45 | 42.13502 | -4.04709 | 36049 ft | 478 kts | 67° |
| 2026-05-05 18:45 | 42.15837 | -3.96326 | 36043 ft | 477 kts | 67° |
| 2026-05-05 18:46 | 42.18161 | -3.87962 | 36034 ft | 476 kts | 67° |
| 2026-05-05 18:46 | 42.20086 | -3.81014 | 36033 ft | 475 kts | 68° |
| 2026-05-05 18:47 | 42.22396 | -3.72659 | 36032 ft | 476 kts | 68° |
| 2026-05-05 18:47 | 42.24706 | -3.64290 | 36029 ft | 476 kts | 68° |
| 2026-05-05 18:48 | 42.27008 | -3.55917 | 36027 ft | 476 kts | 68° |
| 2026-05-05 18:48 | 42.29301 | -3.47528 | 36027 ft | 476 kts | 68° |
| 2026-05-05 18:49 | 42.31586 | -3.39126 | 36030 ft | 476 kts | 68° |
| 2026-05-05 18:49 | 42.33231 | -3.30445 | 36019 ft | 478 kts | 76° |
| 2026-05-05 18:50 | 42.34677 | -3.21663 | 36015 ft | 479 kts | 76° |
| 2026-05-05 18:50 | 42.36101 | -3.12862 | 36017 ft | 479 kts | 77° |
| 2026-05-05 18:51 | 42.37519 | -3.04062 | 36046 ft | 479 kts | 77° |
| 2026-05-05 18:51 | 42.38936 | -2.95267 | 36043 ft | 478 kts | 77° |
| 2026-05-05 18:52 | 42.40347 | -2.86465 | 36030 ft | 478 kts | 77° |
| 2026-05-05 18:52 | 42.41748 | -2.77666 | 36030 ft | 479 kts | 77° |
| 2026-05-05 18:53 | 42.43162 | -2.68807 | 36008 ft | 489 kts | 77° |
| 2026-05-05 18:53 | 42.44589 | -2.59776 | 36007 ft | 491 kts | 77° |
| 2026-05-05 18:54 | 42.46006 | -2.50720 | 36007 ft | 492 kts | 77° |
| 2026-05-05 18:54 | 42.47419 | -2.41648 | 36002 ft | 492 kts | 77° |
| 2026-05-05 18:55 | 42.48821 | -2.32584 | 36000 ft | 492 kts | 77° |
| 2026-05-05 18:55 | 42.50216 | -2.23501 | 35999 ft | 492 kts | 78° |
| 2026-05-05 18:56 | 42.51606 | -2.14431 | 35996 ft | 491 kts | 78° |
| 2026-05-05 18:56 | 42.52997 | -2.05350 | 35990 ft | 491 kts | 78° |
| 2026-05-05 18:57 | 42.54373 | -1.96273 | 35983 ft | 491 kts | 78° |
| 2026-05-05 18:57 | 42.55733 | -1.87257 | 35976 ft | 492 kts | 78° |
| 2026-05-05 18:58 | 42.57093 | -1.78162 | 35984 ft | 492 kts | 78° |
| 2026-05-05 18:58 | 42.58451 | -1.69061 | 35988 ft | 492 kts | 78° |
| 2026-05-05 18:59 | 42.59805 | -1.59963 | 35983 ft | 492 kts | 78° |
| 2026-05-05 18:59 | 42.61152 | -1.50844 | 36002 ft | 492 kts | 79° |
| 2026-05-05 19:00 | 42.62483 | -1.41733 | 35990 ft | 492 kts | 79° |
| 2026-05-05 19:00 | 42.63814 | -1.32624 | 35986 ft | 491 kts | 79° |
| 2026-05-05 19:01 | 42.65133 | -1.23510 | 35974 ft | 491 kts | 79° |
| 2026-05-05 19:01 | 42.66445 | -1.14394 | 35955 ft | 491 kts | 79° |
| 2026-05-05 19:02 | 42.67738 | -1.05336 | 35947 ft | 491 kts | 79° |
| 2026-05-05 19:02 | 42.69038 | -0.96215 | 35950 ft | 492 kts | 79° |
| 2026-05-05 19:03 | 42.70330 | -0.87082 | 35951 ft | 492 kts | 80° |
| 2026-05-05 19:03 | 42.71610 | -0.77941 | 35956 ft | 492 kts | 80° |
| 2026-05-05 19:04 | 42.72894 | -0.68787 | 35944 ft | 492 kts | 80° |
| 2026-05-05 19:04 | 42.74174 | -0.59618 | 35951 ft | 492 kts | 80° |
| 2026-05-05 19:05 | 42.75434 | -0.50454 | 35962 ft | 493 kts | 80° |
| 2026-05-05 19:05 | 42.76681 | -0.41346 | 35967 ft | 493 kts | 80° |
| 2026-05-05 19:06 | 42.77934 | -0.32178 | 35975 ft | 493 kts | 80° |
| 2026-05-05 19:06 | 42.79394 | -0.23060 | 35982 ft | 493 kts | 71° |
| 2026-05-05 19:07 | 42.82486 | -0.14768 | 35981 ft | 492 kts | 52° |
| 2026-05-05 19:07 | 42.86794 | -0.07550 | 35979 ft | 491 kts | 49° |
| 2026-05-05 19:08 | 42.91122 | -0.00351 | 35978 ft | 491 kts | 49° |
| 2026-05-05 19:08 | 42.95422 | 0.06842 | 35975 ft | 492 kts | 50° |
| 2026-05-05 19:09 | 42.99755 | 0.14105 | 35979 ft | 493 kts | 50° |
| 2026-05-05 19:09 | 43.04086 | 0.21381 | 36005 ft | 493 kts | 50° |
| 2026-05-05 19:10 | 43.08419 | 0.28672 | 36011 ft | 493 kts | 50° |
| 2026-05-05 19:10 | 43.12737 | 0.35962 | 36010 ft | 492 kts | 50° |
| 2026-05-05 19:11 | 43.17050 | 0.43256 | 35994 ft | 493 kts | 50° |
| 2026-05-05 19:11 | 43.21359 | 0.50560 | 35990 ft | 493 kts | 50° |
| 2026-05-05 19:12 | 43.25642 | 0.57835 | 36005 ft | 493 kts | 50° |
| 2026-05-05 19:12 | 43.29953 | 0.65180 | 36004 ft | 493 kts | 50° |
| 2026-05-05 19:13 | 43.34238 | 0.72523 | 36002 ft | 493 kts | 50° |
| 2026-05-05 19:13 | 43.38534 | 0.79876 | 35979 ft | 493 kts | 51° |
| 2026-05-05 19:14 | 43.42823 | 0.87219 | 35999 ft | 493 kts | 51° |
| 2026-05-05 19:14 | 43.47110 | 0.94586 | 36000 ft | 492 kts | 51° |
| 2026-05-05 19:15 | 43.51383 | 1.01957 | 35996 ft | 492 kts | 51° |
| 2026-05-05 19:15 | 43.55615 | 1.09292 | 35995 ft | 491 kts | 51° |
| 2026-05-05 19:16 | 43.59870 | 1.16670 | 35973 ft | 491 kts | 51° |
| 2026-05-05 19:16 | 43.64116 | 1.24056 | 35989 ft | 491 kts | 51° |
| 2026-05-05 19:17 | 43.68361 | 1.31453 | 35992 ft | 491 kts | 52° |
| 2026-05-05 19:17 | 43.72485 | 1.38974 | 35992 ft | 491 kts | 54° |
| 2026-05-05 19:18 | 43.76491 | 1.46623 | 35991 ft | 491 kts | 54° |
| 2026-05-05 19:18 | 43.80500 | 1.54277 | 35970 ft | 491 kts | 54° |
| 2026-05-05 19:19 | 43.84551 | 1.61899 | 35976 ft | 491 kts | 54° |
| 2026-05-05 19:19 | 43.88609 | 1.69524 | 35974 ft | 492 kts | 54° |
| 2026-05-05 19:20 | 43.92652 | 1.77165 | 35972 ft | 492 kts | 54° |
| 2026-05-05 19:20 | 43.96655 | 1.84788 | 35976 ft | 492 kts | 54° |
| 2026-05-05 19:21 | 44.00568 | 1.92570 | 35956 ft | 492 kts | 56° |
| 2026-05-05 19:21 | 44.04415 | 2.00428 | 35977 ft | 492 kts | 56° |
| 2026-05-05 19:22 | 44.08273 | 2.08273 | 35976 ft | 491 kts | 56° |
| 2026-05-05 19:22 | 44.12154 | 2.16099 | 35977 ft | 491 kts | 56° |
| 2026-05-05 19:23 | 44.16043 | 2.23930 | 35973 ft | 491 kts | 56° |
| 2026-05-05 19:23 | 44.19912 | 2.31781 | 35958 ft | 491 kts | 56° |
| 2026-05-05 19:24 | 44.23769 | 2.39643 | 35966 ft | 491 kts | 56° |
| 2026-05-05 19:24 | 44.27622 | 2.47517 | 35960 ft | 491 kts | 56° |
| 2026-05-05 19:25 | 44.31467 | 2.55391 | 35963 ft | 491 kts | 56° |
| 2026-05-05 19:25 | 44.35307 | 2.63278 | 35961 ft | 491 kts | 56° |
| 2026-05-05 19:26 | 44.39144 | 2.71180 | 35951 ft | 491 kts | 56° |
| 2026-05-05 19:26 | 44.42979 | 2.79089 | 35952 ft | 491 kts | 56° |
| 2026-05-05 19:27 | 44.46809 | 2.87010 | 35953 ft | 491 kts | 56° |
| 2026-05-05 19:27 | 44.50605 | 2.94886 | 35950 ft | 491 kts | 57° |
| 2026-05-05 19:28 | 44.54416 | 3.02831 | 35952 ft | 491 kts | 57° |
| 2026-05-05 19:28 | 44.58229 | 3.10773 | 35938 ft | 491 kts | 57° |
| 2026-05-05 19:29 | 44.61989 | 3.18776 | 35946 ft | 491 kts | 59° |
| 2026-05-05 19:29 | 44.65396 | 3.27061 | 35946 ft | 490 kts | 62° |
| 2026-05-05 19:30 | 44.68619 | 3.35487 | 35949 ft | 489 kts | 63° |
| 2026-05-05 19:30 | 44.71886 | 3.43887 | 35940 ft | 489 kts | 62° |
| 2026-05-05 19:31 | 44.75221 | 3.52230 | 35941 ft | 489 kts | 61° |
| 2026-05-05 19:31 | 44.78563 | 3.60573 | 35939 ft | 489 kts | 62° |
| 2026-05-05 19:32 | 44.81879 | 3.68934 | 35937 ft | 489 kts | 62° |
| 2026-05-05 19:32 | 44.84811 | 3.77534 | 35933 ft | 485 kts | 77° |
| 2026-05-05 19:33 | 44.86299 | 3.86794 | 35908 ft | 484 kts | 80° |
| 2026-05-05 19:33 | 44.87725 | 3.96062 | 35913 ft | 484 kts | 80° |
| 2026-05-05 19:34 | 44.89149 | 4.05369 | 35911 ft | 485 kts | 80° |
| 2026-05-05 19:35 | 44.91053 | 4.17740 | 35915 ft | 485 kts | 80° |
| 2026-05-05 19:35 | 44.92698 | 4.28565 | 35906 ft | 485 kts | 80° |
| 2026-05-05 19:36 | 44.93880 | 4.36371 | 35920 ft | 484 kts | 81° |
| 2026-05-05 19:36 | 44.95278 | 4.45671 | 35921 ft | 484 kts | 81° |
| 2026-05-05 19:37 | 44.96669 | 4.54976 | 35922 ft | 484 kts | 81° |
| 2026-05-05 19:37 | 44.98056 | 4.64291 | 35898 ft | 485 kts | 81° |
| 2026-05-05 19:38 | 44.99434 | 4.73625 | 35909 ft | 486 kts | 81° |
| 2026-05-05 19:38 | 45.00803 | 4.82917 | 35906 ft | 486 kts | 81° |
| 2026-05-05 19:39 | 45.02173 | 4.92281 | 35908 ft | 486 kts | 81° |
| 2026-05-05 19:39 | 45.03532 | 5.01643 | 35887 ft | 486 kts | 82° |
| 2026-05-05 19:40 | 45.04887 | 5.11033 | 35886 ft | 487 kts | 82° |
| 2026-05-05 19:40 | 45.06236 | 5.20432 | 35895 ft | 488 kts | 82° |
| 2026-05-05 19:41 | 45.07579 | 5.29851 | 35911 ft | 489 kts | 82° |
| 2026-05-05 19:41 | 45.08855 | 5.39293 | 35900 ft | 487 kts | 87° |
| 2026-05-05 19:42 | 45.08878 | 5.48784 | 35900 ft | 482 kts | 98° |
| 2026-05-05 19:42 | 45.08502 | 5.58267 | 35900 ft | 483 kts | 97° |
| 2026-05-05 19:43 | 45.08143 | 5.67773 | 35899 ft | 484 kts | 97° |
| 2026-05-05 19:43 | 45.07784 | 5.77289 | 35881 ft | 484 kts | 98° |
| 2026-05-05 19:44 | 45.07361 | 5.86798 | 35900 ft | 484 kts | 99° |
| 2026-05-05 19:44 | 45.06716 | 5.96267 | 35907 ft | 483 kts | 101° |
| 2026-05-05 19:45 | 45.06005 | 6.05649 | 35923 ft | 483 kts | 101° |
| 2026-05-05 19:45 | 45.05341 | 6.15113 | 35895 ft | 484 kts | 100° |
| 2026-05-05 19:46 | 45.04711 | 6.24599 | 35907 ft | 484 kts | 100° |
| 2026-05-05 19:46 | 45.04078 | 6.34093 | 35919 ft | 484 kts | 101° |
| 2026-05-05 19:47 | 45.03421 | 6.43585 | 35928 ft | 485 kts | 101° |
| 2026-05-05 19:47 | 45.02753 | 6.53067 | 35901 ft | 484 kts | 101° |
| 2026-05-05 19:48 | 45.02070 | 6.62554 | 35927 ft | 485 kts | 101° |
| 2026-05-05 19:48 | 45.01390 | 6.72043 | 35934 ft | 486 kts | 101° |
| 2026-05-05 19:49 | 45.00703 | 6.81475 | 35941 ft | 485 kts | 101° |
| 2026-05-05 19:49 | 45.00009 | 6.90954 | 35937 ft | 485 kts | 102° |
| 2026-05-05 19:50 | 44.99298 | 7.00450 | 35713 ft | 486 kts | 102° |
| 2026-05-05 19:50 | 44.98940 | 7.05197 | 35470 ft | 487 kts | 102° |
| 2026-05-05 19:50 | 44.98577 | 7.09954 | 35227 ft | 488 kts | 103° |
| 2026-05-05 19:50 | 44.98210 | 7.14726 | 34846 ft | 489 kts | 103° |
| 2026-05-05 19:51 | 44.97839 | 7.19538 | 33803 ft | 498 kts | 104° |
| 2026-05-05 19:51 | 44.97454 | 7.24454 | 32675 ft | 506 kts | 103° |
| 2026-05-05 19:51 | 44.97067 | 7.29409 | 31579 ft | 511 kts | 103° |
| 2026-05-05 19:51 | 44.96683 | 7.34393 | 30880 ft | 507 kts | 102° |
| 2026-05-05 19:52 | 44.96312 | 7.39294 | 29786 ft | 498 kts | 102° |
| 2026-05-05 19:52 | 44.95947 | 7.44079 | 29125 ft | 484 kts | 102° |
| 2026-05-05 19:52 | 44.95581 | 7.48773 | 28415 ft | 479 kts | 102° |
| 2026-05-05 19:52 | 44.95210 | 7.53414 | 27743 ft | 473 kts | 102° |
| 2026-05-05 19:53 | 44.94843 | 7.58006 | 27073 ft | 469 kts | 102° |
| 2026-05-05 19:53 | 44.94476 | 7.62558 | 26410 ft | 465 kts | 102° |
| 2026-05-05 19:53 | 44.94111 | 7.67073 | 25744 ft | 461 kts | 102° |
| 2026-05-05 19:53 | 44.93748 | 7.71550 | 25092 ft | 457 kts | 102° |
| 2026-05-05 19:54 | 44.93385 | 7.75989 | 24463 ft | 453 kts | 102° |
| 2026-05-05 19:54 | 44.93023 | 7.80389 | 23832 ft | 450 kts | 102° |
| 2026-05-05 19:54 | 44.92676 | 7.84760 | 23238 ft | 446 kts | 99° |
| 2026-05-05 19:54 | 44.92653 | 7.89070 | 22694 ft | 444 kts | 91° |
| 2026-05-05 19:55 | 44.92824 | 7.93434 | 22195 ft | 437 kts | 91° |
| 2026-05-05 19:55 | 44.92987 | 7.97681 | 21692 ft | 430 kts | 91° |
| 2026-05-05 19:55 | 44.93145 | 8.01863 | 21240 ft | 423 kts | 91° |
| 2026-05-05 19:55 | 44.93297 | 8.05979 | 20775 ft | 417 kts | 91° |
| 2026-05-05 19:56 | 44.93442 | 8.10045 | 20304 ft | 413 kts | 91° |
| 2026-05-05 19:56 | 44.93581 | 8.14069 | 19835 ft | 408 kts | 91° |
| 2026-05-05 19:56 | 44.93721 | 8.18009 | 19365 ft | 405 kts | 91° |
| 2026-05-05 19:56 | 44.93874 | 8.21967 | 18892 ft | 402 kts | 91° |
| 2026-05-05 19:57 | 44.94031 | 8.25899 | 18399 ft | 400 kts | 91° |
| 2026-05-05 19:57 | 44.94117 | 8.29807 | 17868 ft | 396 kts | 97° |
| 2026-05-05 19:57 | 44.93930 | 8.33653 | 17370 ft | 391 kts | 98° |
| 2026-05-05 19:57 | 44.93732 | 8.37467 | 16881 ft | 388 kts | 98° |
| 2026-05-05 19:58 | 44.93537 | 8.41254 | 16388 ft | 386 kts | 98° |
| 2026-05-05 19:58 | 44.93344 | 8.45021 | 15896 ft | 384 kts | 97° |
| 2026-05-05 19:58 | 44.93149 | 8.48768 | 15427 ft | 382 kts | 97° |
| 2026-05-05 19:58 | 44.92952 | 8.52489 | 14923 ft | 380 kts | 97° |
| 2026-05-05 19:59 | 44.92751 | 8.56209 | 14438 ft | 378 kts | 97° |
| 2026-05-05 19:59 | 44.92551 | 8.59899 | 13945 ft | 377 kts | 97° |
| 2026-05-05 19:59 | 44.92350 | 8.63584 | 13416 ft | 375 kts | 97° |
| 2026-05-05 19:59 | 44.92150 | 8.67226 | 13017 ft | 369 kts | 97° |
| 2026-05-05 20:00 | 44.91955 | 8.70812 | 12665 ft | 364 kts | 97° |
| 2026-05-05 20:00 | 44.91763 | 8.74309 | 12373 ft | 361 kts | 97° |
| 2026-05-05 20:00 | 44.91568 | 8.77803 | 12111 ft | 351 kts | 97° |
| 2026-05-05 20:00 | 44.91380 | 8.81170 | 11839 ft | 337 kts | 97° |
| 2026-05-05 20:01 | 44.91199 | 8.84407 | 11587 ft | 326 kts | 97° |
| 2026-05-05 20:01 | 44.91024 | 8.87537 | 11336 ft | 315 kts | 97° |
| 2026-05-05 20:01 | 44.90664 | 8.90532 | 11089 ft | 306 kts | 109° |
| 2026-05-05 20:01 | 44.89916 | 8.93320 | 10843 ft | 302 kts | 115° |
| 2026-05-05 20:02 | 44.89130 | 8.96059 | 10599 ft | 302 kts | 113° |
| 2026-05-05 20:02 | 44.88742 | 8.98964 | 10389 ft | 304 kts | 91° |
| 2026-05-05 20:02 | 44.89157 | 9.01886 | 10256 ft | 306 kts | 67° |
| 2026-05-05 20:02 | 44.90328 | 9.04378 | 10116 ft | 307 kts | 48° |
| 2026-05-05 20:03 | 44.91761 | 9.06605 | 9953 ft | 307 kts | 47° |
| 2026-05-05 20:03 | 44.93196 | 9.08821 | 9720 ft | 305 kts | 47° |
| 2026-05-05 20:03 | 44.94621 | 9.11023 | 9449 ft | 303 kts | 48° |
| 2026-05-05 20:03 | 44.96035 | 9.13213 | 9091 ft | 301 kts | 48° |
| 2026-05-05 20:04 | 44.97438 | 9.15392 | 8705 ft | 299 kts | 48° |
| 2026-05-05 20:04 | 44.98831 | 9.17563 | 8329 ft | 297 kts | 48° |
| 2026-05-05 20:04 | 45.00212 | 9.19725 | 7962 ft | 296 kts | 49° |
| 2026-05-05 20:04 | 45.01591 | 9.21888 | 7542 ft | 295 kts | 48° |
| 2026-05-05 20:05 | 45.02958 | 9.24033 | 7201 ft | 288 kts | 48° |
| 2026-05-05 20:05 | 45.04251 | 9.26054 | 7046 ft | 268 kts | 48° |
| 2026-05-05 20:05 | 45.05487 | 9.27984 | 6679 ft | 263 kts | 48° |
| 2026-05-05 20:05 | 45.06721 | 9.29814 | 6421 ft | 258 kts | 38° |
| 2026-05-05 20:06 | 45.08238 | 9.31045 | 6237 ft | 249 kts | 17° |
| 2026-05-05 20:06 | 45.09915 | 9.31441 | 5946 ft | 243 kts | 355° |
| 2026-05-05 20:06 | 45.11590 | 9.31265 | 5651 ft | 240 kts | 353° |
| 2026-05-05 20:06 | 45.13259 | 9.31077 | 5416 ft | 241 kts | 353° |
| 2026-05-05 20:07 | 45.14926 | 9.30883 | 5198 ft | 240 kts | 353° |
| 2026-05-05 20:07 | 45.16588 | 9.30700 | 4999 ft | 238 kts | 354° |
| 2026-05-05 20:07 | 45.18219 | 9.30526 | 4835 ft | 232 kts | 354° |
| 2026-05-05 20:07 | 45.19811 | 9.30356 | 4680 ft | 227 kts | 354° |
| 2026-05-05 20:08 | 45.21380 | 9.30188 | 4574 ft | 225 kts | 354° |
| 2026-05-05 20:08 | 45.22935 | 9.30022 | 4339 ft | 221 kts | 355° |
| 2026-05-05 20:08 | 45.24443 | 9.29861 | 4085 ft | 215 kts | 355° |
| 2026-05-05 20:08 | 45.25919 | 9.29703 | 3826 ft | 211 kts | 355° |
| 2026-05-05 20:09 | 45.27349 | 9.29550 | 3553 ft | 207 kts | 356° |
| 2026-05-05 20:09 | 45.28764 | 9.29398 | 3262 ft | 200 kts | 356° |
| 2026-05-05 20:09 | 45.30112 | 9.29253 | 3003 ft | 189 kts | 356° |
| 2026-05-05 20:09 | 45.31394 | 9.29116 | 2760 ft | 181 kts | 357° |
| 2026-05-05 20:10 | 45.32641 | 9.28982 | 2528 ft | 178 kts | 358° |
| 2026-05-05 20:10 | 45.33873 | 9.28850 | 2292 ft | 177 kts | 358° |
| 2026-05-05 20:10 | 45.35072 | 9.28721 | 2085 ft | 165 kts | 358° |
| 2026-05-05 20:10 | 45.36174 | 9.28602 | 1841 ft | 153 kts | 359° |
| 2026-05-05 20:11 | 45.37211 | 9.28490 | 1640 ft | 148 kts | 359° |
| 2026-05-05 20:11 | 45.38229 | 9.28382 | 1444 ft | 146 kts | 359° |
| 2026-05-05 20:11 | 45.39238 | 9.28274 | 1246 ft | 145 kts | 358° |
| 2026-05-05 20:11 | 45.40244 | 9.28166 | 1037 ft | 144 kts | 358° |
| 2026-05-05 20:12 | 45.41234 | 9.28058 | 835 ft | 142 kts | 357° |
| 2026-05-05 20:12 | 45.42214 | 9.27954 | 641 ft | 140 kts | 357° |
| 2026-05-05 20:12 | 45.43179 | 9.27850 | 462 ft | 139 kts | 357° |
| 2026-05-05 20:12 | 45.44109 | 9.27748 | 375 ft | 125 kts | 357° |
| 2026-05-05 20:13 | 45.44849 | 9.27673 | 367 ft | 92 kts | 355° |
| 2026-05-05 20:13 | 45.45233 | 9.27635 | 367 ft | 27 kts | 3° |
| 2026-05-05 20:13 | 45.45357 | 9.27696 | 369 ft | 17 kts | 27° |
| 2026-05-05 20:13 | 45.45419 | 9.27743 | 371 ft | 7 kts | 29° |
| 2026-05-05 20:14 | 45.45449 | 9.27781 | 366 ft | 3 kts | 52° |
| 2026-05-05 20:14 | 45.45452 | 9.27787 | 368 ft | 1 kts | 53° |
| 2026-05-05 20:14 | 45.45472 | 9.27814 | 366 ft | 6 kts | 28° |
| 2026-05-05 20:14 | 45.45534 | 9.27815 | 368 ft | 12 kts | 359° |
| 2026-05-05 20:15 | 45.45648 | 9.27815 | 368 ft | 19 kts | 0° |
| 2026-05-05 20:15 | 45.45790 | 9.27820 | 372 ft | 17 kts | 0° |
| 2026-05-05 20:15 | 45.45873 | 9.27822 | 366 ft | 9 kts | 7° |
| 2026-05-05 20:15 | 45.45906 | 9.27871 | 371 ft | 6 kts | 81° |
| 2026-05-05 20:16 | 45.45905 | 9.27928 | 366 ft | 5 kts | 91° |
| 2026-05-05 20:16 | 45.45904 | 9.27989 | 366 ft | 6 kts | 91° |
| 2026-05-05 20:16 | 45.45918 | 9.28031 | 369 ft | 4 kts | 29° |
| 2026-05-05 20:16 | 45.45950 | 9.28031 | 370 ft | 4 kts | 359° |
| 2026-05-05 20:17 | 45.45971 | 9.28030 | 370 ft | 2 kts | 0° |
| 2026-05-05 20:17 | 45.45979 | 9.28031 | 368 ft | 0 kts | 0° |